sensor_id;sensor_type;location;lat;lon;timestamp;P1;durP1;ratioP1;P2;durP2;ratioP2
50709;SDS011;37033;49.994;21.992;2023-07-20T00:00:25;5.10;;;3.80;;
50709;SDS011;37033;49.994;21.992;2023-07-20T00:03:16;6.50;;;4.30;;
50709;SDS011;37033;49.994;21.992;2023-07-20T00:05:46;4.80;;;4.30;;
50709;SDS011;37033;49.994;21.992;2023-07-20T00:08:17;8.00;;;4.20;;
50709;SDS011;37033;49.994;21.992;2023-07-20T00:10:48;5.40;;;4.20;;
50709;SDS011;37033;49.994;21.992;2023-07-20T00:13:18;5.10;;;4.10;;
50709;SDS011;37033;49.994;21.992;2023-07-20T00:15:49;6.30;;;4.10;;
50709;SDS011;37033;49.994;21.992;2023-07-20T00:18:20;4.00;;;3.70;;
50709;SDS011;37033;49.994;21.992;2023-07-20T00:20:51;6.00;;;3.90;;
50709;SDS011;37033;49.994;21.992;2023-07-20T00:23:21;8.50;;;4.60;;
50709;SDS011;37033;49.994;21.992;2023-07-20T00:25:52;4.70;;;4.30;;
50709;SDS011;37033;49.994;21.992;2023-07-20T00:28:22;4.80;;;4.30;;
50709;SDS011;37033;49.994;21.992;2023-07-20T00:30:53;5.00;;;4.20;;
50709;SDS011;37033;49.994;21.992;2023-07-20T00:33:24;4.30;;;3.90;;
50709;SDS011;37033;49.994;21.992;2023-07-20T00:35:55;8.00;;;4.80;;
50709;SDS011;37033;49.994;21.992;2023-07-20T00:38:25;6.80;;;4.20;;
50709;SDS011;37033;49.994;21.992;2023-07-20T00:40:56;8.10;;;5.00;;
50709;SDS011;37033;49.994;21.992;2023-07-20T00:43:26;5.90;;;4.50;;
50709;SDS011;37033;49.994;21.992;2023-07-20T00:45:57;4.50;;;4.10;;
50709;SDS011;37033;49.994;21.992;2023-07-20T00:48:28;5.00;;;4.50;;
50709;SDS011;37033;49.994;21.992;2023-07-20T00:50:59;6.20;;;4.70;;
50709;SDS011;37033;49.994;21.992;2023-07-20T00:53:31;7.10;;;4.30;;
50709;SDS011;37033;49.994;21.992;2023-07-20T00:56:01;4.40;;;3.90;;
50709;SDS011;37033;49.994;21.992;2023-07-20T00:58:32;7.10;;;4.50;;
50709;SDS011;37033;49.994;21.992;2023-07-20T01:01:03;6.20;;;4.10;;
50709;SDS011;37033;49.994;21.992;2023-07-20T01:03:34;5.50;;;4.10;;
50709;SDS011;37033;49.994;21.992;2023-07-20T01:06:08;7.70;;;4.00;;
50709;SDS011;37033;49.994;21.992;2023-07-20T01:08:45;8.00;;;3.90;;
50709;SDS011;37033;49.994;21.992;2023-07-20T01:11:24;5.10;;;4.20;;
50709;SDS011;37033;49.994;21.992;2023-07-20T01:14:04;7.90;;;4.20;;
50709;SDS011;37033;49.994;21.992;2023-07-20T01:16:35;4.20;;;3.60;;
50709;SDS011;37033;49.994;21.992;2023-07-20T01:19:08;5.90;;;4.40;;
50709;SDS011;37033;49.994;21.992;2023-07-20T01:21:40;4.70;;;4.20;;
50709;SDS011;37033;49.994;21.992;2023-07-20T01:24:29;5.40;;;4.20;;
50709;SDS011;37033;49.994;21.992;2023-07-20T01:30:25;4.10;;;3.80;;
50709;SDS011;37033;49.994;21.992;2023-07-20T01:33:11;5.10;;;4.40;;
50709;SDS011;37033;49.994;21.992;2023-07-20T01:35:46;4.40;;;3.90;;
50709;SDS011;37033;49.994;21.992;2023-07-20T01:38:19;5.40;;;4.20;;
50709;SDS011;37033;49.994;21.992;2023-07-20T01:40:52;6.10;;;3.90;;
50709;SDS011;37033;49.994;21.992;2023-07-20T01:43:23;8.10;;;4.20;;
50709;SDS011;37033;49.994;21.992;2023-07-20T01:45:53;10.00;;;4.20;;
50709;SDS011;37033;49.994;21.992;2023-07-20T01:48:24;5.70;;;3.70;;
50709;SDS011;37033;49.994;21.992;2023-07-20T01:50:55;4.70;;;3.10;;
50709;SDS011;37033;49.994;21.992;2023-07-20T01:53:26;5.60;;;3.40;;
50709;SDS011;37033;49.994;21.992;2023-07-20T01:55:57;6.10;;;3.70;;
50709;SDS011;37033;49.994;21.992;2023-07-20T01:58:27;4.90;;;3.50;;
50709;SDS011;37033;49.994;21.992;2023-07-20T02:00:58;4.20;;;3.80;;
50709;SDS011;37033;49.994;21.992;2023-07-20T02:03:29;7.00;;;3.50;;
50709;SDS011;37033;49.994;21.992;2023-07-20T02:06:00;4.60;;;3.40;;
50709;SDS011;37033;49.994;21.992;2023-07-20T02:08:30;4.20;;;3.80;;
50709;SDS011;37033;49.994;21.992;2023-07-20T02:11:01;3.60;;;3.30;;
50709;SDS011;37033;49.994;21.992;2023-07-20T02:13:32;4.70;;;3.60;;
50709;SDS011;37033;49.994;21.992;2023-07-20T02:16:03;4.30;;;3.50;;
50709;SDS011;37033;49.994;21.992;2023-07-20T02:18:34;4.70;;;3.80;;
50709;SDS011;37033;49.994;21.992;2023-07-20T02:21:04;5.30;;;3.80;;
50709;SDS011;37033;49.994;21.992;2023-07-20T02:23:35;6.30;;;3.70;;
50709;SDS011;37033;49.994;21.992;2023-07-20T02:26:06;4.80;;;3.50;;
50709;SDS011;37033;49.994;21.992;2023-07-20T02:28:36;7.20;;;4.30;;
50709;SDS011;37033;49.994;21.992;2023-07-20T02:31:07;4.90;;;3.70;;
50709;SDS011;37033;49.994;21.992;2023-07-20T02:33:37;4.60;;;3.80;;
50709;SDS011;37033;49.994;21.992;2023-07-20T02:36:08;5.60;;;3.50;;
50709;SDS011;37033;49.994;21.992;2023-07-20T02:38:39;6.40;;;3.50;;
50709;SDS011;37033;49.994;21.992;2023-07-20T02:41:09;5.80;;;3.30;;
50709;SDS011;37033;49.994;21.992;2023-07-20T02:43:40;6.00;;;3.30;;
50709;SDS011;37033;49.994;21.992;2023-07-20T02:46:11;8.80;;;3.70;;
50709;SDS011;37033;49.994;21.992;2023-07-20T02:48:41;3.80;;;3.30;;
50709;SDS011;37033;49.994;21.992;2023-07-20T02:51:12;4.20;;;3.80;;
50709;SDS011;37033;49.994;21.992;2023-07-20T02:53:43;5.20;;;3.60;;
50709;SDS011;37033;49.994;21.992;2023-07-20T02:56:13;4.10;;;3.50;;
50709;SDS011;37033;49.994;21.992;2023-07-20T02:58:45;6.70;;;3.80;;
50709;SDS011;37033;49.994;21.992;2023-07-20T03:01:16;7.50;;;3.70;;
50709;SDS011;37033;49.994;21.992;2023-07-20T03:03:47;4.30;;;3.90;;
50709;SDS011;37033;49.994;21.992;2023-07-20T03:06:17;5.20;;;3.80;;
50709;SDS011;37033;49.994;21.992;2023-07-20T03:08:48;6.10;;;4.20;;
50709;SDS011;37033;49.994;21.992;2023-07-20T03:11:20;4.00;;;3.50;;
50709;SDS011;37033;49.994;21.992;2023-07-20T03:13:50;3.90;;;3.50;;
50709;SDS011;37033;49.994;21.992;2023-07-20T03:16:21;6.20;;;3.80;;
50709;SDS011;37033;49.994;21.992;2023-07-20T03:18:52;4.30;;;3.80;;
50709;SDS011;37033;49.994;21.992;2023-07-20T03:21:23;3.60;;;3.30;;
50709;SDS011;37033;49.994;21.992;2023-07-20T03:23:54;4.70;;;4.00;;
50709;SDS011;37033;49.994;21.992;2023-07-20T03:26:25;4.50;;;3.60;;
50709;SDS011;37033;49.994;21.992;2023-07-20T03:28:55;4.20;;;3.80;;
50709;SDS011;37033;49.994;21.992;2023-07-20T03:31:26;4.00;;;3.60;;
50709;SDS011;37033;49.994;21.992;2023-07-20T03:33:57;4.80;;;3.60;;
50709;SDS011;37033;49.994;21.992;2023-07-20T03:36:27;3.90;;;3.60;;
50709;SDS011;37033;49.994;21.992;2023-07-20T03:38:59;6.00;;;4.50;;
50709;SDS011;37033;49.994;21.992;2023-07-20T03:41:30;6.20;;;3.70;;
50709;SDS011;37033;49.994;21.992;2023-07-20T03:44:01;6.10;;;4.40;;
50709;SDS011;37033;49.994;21.992;2023-07-20T03:46:31;4.40;;;3.50;;
50709;SDS011;37033;49.994;21.992;2023-07-20T03:49:02;19.40;;;12.90;;
50709;SDS011;37033;49.994;21.992;2023-07-20T03:51:33;6.80;;;5.30;;
50709;SDS011;37033;49.994;21.992;2023-07-20T03:54:04;4.70;;;3.90;;
50709;SDS011;37033;49.994;21.992;2023-07-20T03:56:35;5.70;;;4.20;;
50709;SDS011;37033;49.994;21.992;2023-07-20T03:59:06;4.60;;;4.10;;
50709;SDS011;37033;49.994;21.992;2023-07-20T04:01:36;4.90;;;4.30;;
50709;SDS011;37033;49.994;21.992;2023-07-20T04:04:07;7.00;;;4.40;;
50709;SDS011;37033;49.994;21.992;2023-07-20T04:06:38;6.50;;;4.10;;
50709;SDS011;37033;49.994;21.992;2023-07-20T04:09:12;6.00;;;4.30;;
50709;SDS011;37033;49.994;21.992;2023-07-20T04:11:42;5.80;;;4.40;;
50709;SDS011;37033;49.994;21.992;2023-07-20T04:14:13;6.30;;;4.10;;
50709;SDS011;37033;49.994;21.992;2023-07-20T04:16:45;4.20;;;3.80;;
50709;SDS011;37033;49.994;21.992;2023-07-20T04:19:16;6.60;;;4.40;;
50709;SDS011;37033;49.994;21.992;2023-07-20T04:21:47;4.80;;;4.30;;
50709;SDS011;37033;49.994;21.992;2023-07-20T04:24:17;6.80;;;3.80;;
50709;SDS011;37033;49.994;21.992;2023-07-20T04:26:48;4.30;;;3.40;;
50709;SDS011;37033;49.994;21.992;2023-07-20T04:29:19;4.80;;;3.70;;
50709;SDS011;37033;49.994;21.992;2023-07-20T04:31:49;4.30;;;3.80;;
50709;SDS011;37033;49.994;21.992;2023-07-20T04:34:20;6.80;;;4.40;;
50709;SDS011;37033;49.994;21.992;2023-07-20T04:36:50;6.30;;;5.30;;
50709;SDS011;37033;49.994;21.992;2023-07-20T04:39:21;9.70;;;6.20;;
50709;SDS011;37033;49.994;21.992;2023-07-20T04:41:52;6.20;;;5.40;;
50709;SDS011;37033;49.994;21.992;2023-07-20T04:44:23;11.50;;;4.90;;
50709;SDS011;37033;49.994;21.992;2023-07-20T04:46:53;5.40;;;3.90;;
50709;SDS011;37033;49.994;21.992;2023-07-20T04:49:24;6.70;;;4.70;;
50709;SDS011;37033;49.994;21.992;2023-07-20T04:51:55;8.00;;;4.20;;
50709;SDS011;37033;49.994;21.992;2023-07-20T04:54:25;8.10;;;4.40;;
50709;SDS011;37033;49.994;21.992;2023-07-20T04:56:56;8.90;;;4.20;;
50709;SDS011;37033;49.994;21.992;2023-07-20T04:59:26;5.20;;;4.50;;
50709;SDS011;37033;49.994;21.992;2023-07-20T05:01:57;6.50;;;3.90;;
50709;SDS011;37033;49.994;21.992;2023-07-20T05:04:28;6.60;;;5.00;;
50709;SDS011;37033;49.994;21.992;2023-07-20T05:06:58;9.50;;;5.00;;
50709;SDS011;37033;49.994;21.992;2023-07-20T05:09:29;6.10;;;5.00;;
50709;SDS011;37033;49.994;21.992;2023-07-20T05:11:59;5.70;;;4.20;;
50709;SDS011;37033;49.994;21.992;2023-07-20T05:14:30;6.00;;;4.70;;
50709;SDS011;37033;49.994;21.992;2023-07-20T05:17:01;8.70;;;4.40;;
50709;SDS011;37033;49.994;21.992;2023-07-20T05:19:32;8.00;;;4.30;;
50709;SDS011;37033;49.994;21.992;2023-07-20T05:22:02;6.30;;;4.00;;
50709;SDS011;37033;49.994;21.992;2023-07-20T05:24:33;4.90;;;4.00;;
50709;SDS011;37033;49.994;21.992;2023-07-20T05:27:04;5.30;;;3.90;;
50709;SDS011;37033;49.994;21.992;2023-07-20T05:29:35;7.00;;;4.30;;
50709;SDS011;37033;49.994;21.992;2023-07-20T05:32:06;6.80;;;3.90;;
50709;SDS011;37033;49.994;21.992;2023-07-20T05:34:37;6.00;;;5.00;;
50709;SDS011;37033;49.994;21.992;2023-07-20T05:37:08;6.20;;;3.80;;
50709;SDS011;37033;49.994;21.992;2023-07-20T05:39:38;5.60;;;3.10;;
50709;SDS011;37033;49.994;21.992;2023-07-20T05:42:09;7.40;;;4.10;;
50709;SDS011;37033;49.994;21.992;2023-07-20T05:44:40;7.40;;;3.10;;
50709;SDS011;37033;49.994;21.992;2023-07-20T05:47:11;4.20;;;3.80;;
50709;SDS011;37033;49.994;21.992;2023-07-20T05:49:42;6.70;;;3.60;;
50709;SDS011;37033;49.994;21.992;2023-07-20T05:52:12;6.60;;;4.20;;
50709;SDS011;37033;49.994;21.992;2023-07-20T05:54:43;5.60;;;3.70;;
50709;SDS011;37033;49.994;21.992;2023-07-20T05:57:14;6.90;;;3.90;;
50709;SDS011;37033;49.994;21.992;2023-07-20T05:59:44;4.20;;;3.20;;
50709;SDS011;37033;49.994;21.992;2023-07-20T06:02:15;8.20;;;3.80;;
50709;SDS011;37033;49.994;21.992;2023-07-20T06:04:46;5.10;;;3.90;;
50709;SDS011;37033;49.994;21.992;2023-07-20T06:07:17;6.10;;;4.50;;
50709;SDS011;37033;49.994;21.992;2023-07-20T06:09:48;7.30;;;4.20;;
50709;SDS011;37033;49.994;21.992;2023-07-20T06:12:18;6.00;;;4.20;;
50709;SDS011;37033;49.994;21.992;2023-07-20T06:14:49;6.70;;;4.60;;
50709;SDS011;37033;49.994;21.992;2023-07-20T06:17:19;7.60;;;4.50;;
50709;SDS011;37033;49.994;21.992;2023-07-20T06:19:50;8.90;;;4.20;;
50709;SDS011;37033;49.994;21.992;2023-07-20T06:22:21;5.90;;;5.40;;
50709;SDS011;37033;49.994;21.992;2023-07-20T06:24:51;7.20;;;5.10;;
50709;SDS011;37033;49.994;21.992;2023-07-20T06:27:22;6.50;;;4.70;;
50709;SDS011;37033;49.994;21.992;2023-07-20T06:29:52;6.90;;;4.70;;
50709;SDS011;37033;49.994;21.992;2023-07-20T06:32:23;7.10;;;4.40;;
50709;SDS011;37033;49.994;21.992;2023-07-20T06:34:54;4.90;;;3.80;;
50709;SDS011;37033;49.994;21.992;2023-07-20T06:37:24;7.40;;;4.30;;
50709;SDS011;37033;49.994;21.992;2023-07-20T06:39:55;7.20;;;4.80;;
50709;SDS011;37033;49.994;21.992;2023-07-20T06:42:26;8.10;;;4.00;;
50709;SDS011;37033;49.994;21.992;2023-07-20T06:44:56;6.70;;;4.60;;
50709;SDS011;37033;49.994;21.992;2023-07-20T06:47:27;6.00;;;4.80;;
50709;SDS011;37033;49.994;21.992;2023-07-20T06:49:58;5.80;;;4.50;;
50709;SDS011;37033;49.994;21.992;2023-07-20T06:52:29;10.80;;;4.20;;
50709;SDS011;37033;49.994;21.992;2023-07-20T06:55:00;5.00;;;4.10;;
50709;SDS011;37033;49.994;21.992;2023-07-20T06:57:31;5.50;;;4.40;;
50709;SDS011;37033;49.994;21.992;2023-07-20T07:00:01;5.70;;;4.80;;
50709;SDS011;37033;49.994;21.992;2023-07-20T07:02:34;9.00;;;5.10;;
50709;SDS011;37033;49.994;21.992;2023-07-20T07:05:05;6.60;;;4.90;;
50709;SDS011;37033;49.994;21.992;2023-07-20T07:07:37;6.30;;;4.20;;
50709;SDS011;37033;49.994;21.992;2023-07-20T07:10:08;11.70;;;4.80;;
50709;SDS011;37033;49.994;21.992;2023-07-20T07:12:39;9.00;;;4.60;;
50709;SDS011;37033;49.994;21.992;2023-07-20T07:15:10;8.10;;;4.90;;
50709;SDS011;37033;49.994;21.992;2023-07-20T07:17:41;17.40;;;11.40;;
50709;SDS011;37033;49.994;21.992;2023-07-20T07:20:12;7.00;;;5.30;;
50709;SDS011;37033;49.994;21.992;2023-07-20T07:22:42;6.60;;;5.00;;
50709;SDS011;37033;49.994;21.992;2023-07-20T07:25:14;5.10;;;4.30;;
50709;SDS011;37033;49.994;21.992;2023-07-20T07:27:44;5.90;;;4.80;;
50709;SDS011;37033;49.994;21.992;2023-07-20T07:30:15;6.10;;;4.10;;
50709;SDS011;37033;49.994;21.992;2023-07-20T07:32:46;7.60;;;4.40;;
50709;SDS011;37033;49.994;21.992;2023-07-20T07:35:17;5.30;;;4.80;;
50709;SDS011;37033;49.994;21.992;2023-07-20T07:37:47;8.90;;;5.10;;
50709;SDS011;37033;49.994;21.992;2023-07-20T07:40:18;5.70;;;4.30;;
50709;SDS011;37033;49.994;21.992;2023-07-20T07:42:48;7.20;;;4.20;;
50709;SDS011;37033;49.994;21.992;2023-07-20T07:45:19;5.50;;;4.20;;
50709;SDS011;37033;49.994;21.992;2023-07-20T07:47:50;6.70;;;4.70;;
50709;SDS011;37033;49.994;21.992;2023-07-20T07:50:20;5.50;;;5.00;;
50709;SDS011;37033;49.994;21.992;2023-07-20T07:52:51;7.00;;;5.20;;
50709;SDS011;37033;49.994;21.992;2023-07-20T07:55:21;6.90;;;5.10;;
50709;SDS011;37033;49.994;21.992;2023-07-20T07:57:54;6.00;;;4.80;;
50709;SDS011;37033;49.994;21.992;2023-07-20T08:00:25;8.20;;;5.20;;
50709;SDS011;37033;49.994;21.992;2023-07-20T08:02:56;6.00;;;4.90;;
50709;SDS011;37033;49.994;21.992;2023-07-20T08:05:27;6.10;;;4.80;;
50709;SDS011;37033;49.994;21.992;2023-07-20T08:07:57;7.70;;;5.10;;
50709;SDS011;37033;49.994;21.992;2023-07-20T08:10:28;8.70;;;4.80;;
50709;SDS011;37033;49.994;21.992;2023-07-20T08:12:59;7.00;;;5.20;;
50709;SDS011;37033;49.994;21.992;2023-07-20T08:15:30;10.50;;;5.40;;
50709;SDS011;37033;49.994;21.992;2023-07-20T08:18:00;9.00;;;5.30;;
50709;SDS011;37033;49.994;21.992;2023-07-20T08:20:31;9.10;;;5.10;;
50709;SDS011;37033;49.994;21.992;2023-07-20T08:23:03;9.60;;;5.20;;
50709;SDS011;37033;49.994;21.992;2023-07-20T08:25:34;8.70;;;5.10;;
50709;SDS011;37033;49.994;21.992;2023-07-20T08:28:07;6.30;;;4.90;;
50709;SDS011;37033;49.994;21.992;2023-07-20T08:30:41;8.00;;;5.60;;
50709;SDS011;37033;49.994;21.992;2023-07-20T08:33:14;7.50;;;5.10;;
50709;SDS011;37033;49.994;21.992;2023-07-20T08:35:47;6.60;;;5.10;;
50709;SDS011;37033;49.994;21.992;2023-07-20T08:38:17;6.90;;;4.90;;
50709;SDS011;37033;49.994;21.992;2023-07-20T08:40:48;8.90;;;7.30;;
50709;SDS011;37033;49.994;21.992;2023-07-20T08:43:22;7.20;;;5.10;;
50709;SDS011;37033;49.994;21.992;2023-07-20T08:45:53;8.30;;;4.90;;
50709;SDS011;37033;49.994;21.992;2023-07-20T08:48:25;6.70;;;4.80;;
50709;SDS011;37033;49.994;21.992;2023-07-20T08:50:59;6.30;;;4.70;;
50709;SDS011;37033;49.994;21.992;2023-07-20T08:53:30;9.90;;;5.40;;
50709;SDS011;37033;49.994;21.992;2023-07-20T08:56:02;7.70;;;5.00;;
50709;SDS011;37033;49.994;21.992;2023-07-20T08:58:35;7.80;;;5.20;;
50709;SDS011;37033;49.994;21.992;2023-07-20T09:01:07;7.10;;;4.60;;
50709;SDS011;37033;49.994;21.992;2023-07-20T09:03:39;5.60;;;4.90;;
50709;SDS011;37033;49.994;21.992;2023-07-20T09:06:11;5.90;;;4.70;;
50709;SDS011;37033;49.994;21.992;2023-07-20T09:08:41;6.40;;;4.10;;
50709;SDS011;37033;49.994;21.992;2023-07-20T09:11:12;7.90;;;5.00;;
50709;SDS011;37033;49.994;21.992;2023-07-20T09:13:43;9.90;;;4.80;;
50709;SDS011;37033;49.994;21.992;2023-07-20T09:16:14;9.80;;;4.70;;
50709;SDS011;37033;49.994;21.992;2023-07-20T09:18:45;6.30;;;4.60;;
50709;SDS011;37033;49.994;21.992;2023-07-20T09:21:15;9.20;;;4.60;;
50709;SDS011;37033;49.994;21.992;2023-07-20T09:23:47;7.80;;;4.60;;
50709;SDS011;37033;49.994;21.992;2023-07-20T09:26:21;8.30;;;4.50;;
50709;SDS011;37033;49.994;21.992;2023-07-20T09:28:52;5.40;;;4.40;;
50709;SDS011;37033;49.994;21.992;2023-07-20T09:31:23;4.90;;;3.80;;
50709;SDS011;37033;49.994;21.992;2023-07-20T09:33:54;6.90;;;4.10;;
50709;SDS011;37033;49.994;21.992;2023-07-20T09:36:25;4.80;;;4.30;;
50709;SDS011;37033;49.994;21.992;2023-07-20T09:38:58;6.10;;;3.80;;
50709;SDS011;37033;49.994;21.992;2023-07-20T09:41:29;4.30;;;3.60;;
50709;SDS011;37033;49.994;21.992;2023-07-20T09:44:08;4.20;;;3.80;;
50709;SDS011;37033;49.994;21.992;2023-07-20T09:46:42;5.10;;;3.20;;
50709;SDS011;37033;49.994;21.992;2023-07-20T09:49:14;4.10;;;3.50;;
50709;SDS011;37033;49.994;21.992;2023-07-20T09:51:46;4.50;;;3.30;;
50709;SDS011;37033;49.994;21.992;2023-07-20T09:54:17;4.30;;;3.30;;
50709;SDS011;37033;49.994;21.992;2023-07-20T09:56:50;5.10;;;3.40;;
50709;SDS011;37033;49.994;21.992;2023-07-20T09:59:21;6.80;;;2.90;;
50709;SDS011;37033;49.994;21.992;2023-07-20T10:01:52;6.90;;;3.20;;
50709;SDS011;37033;49.994;21.992;2023-07-20T10:04:27;9.30;;;3.20;;
50709;SDS011;37033;49.994;21.992;2023-07-20T10:06:59;6.40;;;2.60;;
50709;SDS011;37033;49.994;21.992;2023-07-20T10:09:34;4.10;;;2.80;;
50709;SDS011;37033;49.994;21.992;2023-07-20T10:12:08;3.60;;;2.70;;
50709;SDS011;37033;49.994;21.992;2023-07-20T10:14:40;4.10;;;2.80;;
50709;SDS011;37033;49.994;21.992;2023-07-20T10:17:17;4.90;;;2.80;;
50709;SDS011;37033;49.994;21.992;2023-07-20T10:19:49;4.10;;;2.70;;
50709;SDS011;37033;49.994;21.992;2023-07-20T10:22:24;3.30;;;2.20;;
50709;SDS011;37033;49.994;21.992;2023-07-20T10:24:56;5.20;;;2.60;;
50709;SDS011;37033;49.994;21.992;2023-07-20T10:27:28;3.00;;;2.40;;
50709;SDS011;37033;49.994;21.992;2023-07-20T10:29:59;3.20;;;2.30;;
50709;SDS011;37033;49.994;21.992;2023-07-20T10:32:31;3.30;;;2.50;;
50709;SDS011;37033;49.994;21.992;2023-07-20T10:35:11;3.50;;;1.80;;
50709;SDS011;37033;49.994;21.992;2023-07-20T10:37:49;2.40;;;2.20;;
50709;SDS011;37033;49.994;21.992;2023-07-20T10:40:25;3.90;;;2.50;;
50709;SDS011;37033;49.994;21.992;2023-07-20T10:43:03;3.30;;;2.40;;
50709;SDS011;37033;49.994;21.992;2023-07-20T10:45:41;2.30;;;2.00;;
50709;SDS011;37033;49.994;21.992;2023-07-20T10:48:19;4.40;;;2.50;;
50709;SDS011;37033;49.994;21.992;2023-07-20T10:53:42;8.50;;;2.50;;
50709;SDS011;37033;49.994;21.992;2023-07-20T10:56:13;2.40;;;2.20;;
50709;SDS011;37033;49.994;21.992;2023-07-20T10:58:48;2.90;;;1.90;;
50709;SDS011;37033;49.994;21.992;2023-07-20T11:01:27;2.30;;;2.10;;
50709;SDS011;37033;49.994;21.992;2023-07-20T11:03:59;3.50;;;2.50;;
50709;SDS011;37033;49.994;21.992;2023-07-20T11:06:30;1.40;;;1.20;;
50709;SDS011;37033;49.994;21.992;2023-07-20T11:09:06;2.50;;;1.90;;
50709;SDS011;37033;49.994;21.992;2023-07-20T11:11:39;5.90;;;2.30;;
50709;SDS011;37033;49.994;21.992;2023-07-20T11:14:19;3.90;;;2.00;;
50709;SDS011;37033;49.994;21.992;2023-07-20T11:16:51;4.30;;;2.00;;
50709;SDS011;37033;49.994;21.992;2023-07-20T11:19:23;2.50;;;2.10;;
50709;SDS011;37033;49.994;21.992;2023-07-20T11:21:55;4.20;;;1.90;;
50709;SDS011;37033;49.994;21.992;2023-07-20T11:24:26;3.30;;;2.00;;
50709;SDS011;37033;49.994;21.992;2023-07-20T11:27:02;2.10;;;1.90;;
50709;SDS011;37033;49.994;21.992;2023-07-20T11:29:33;2.60;;;1.60;;
50709;SDS011;37033;49.994;21.992;2023-07-20T11:32:04;2.40;;;1.70;;
50709;SDS011;37033;49.994;21.992;2023-07-20T11:34:35;1.90;;;1.20;;
50709;SDS011;37033;49.994;21.992;2023-07-20T11:37:06;1.70;;;1.40;;
50709;SDS011;37033;49.994;21.992;2023-07-20T11:39:37;4.00;;;1.40;;
50709;SDS011;37033;49.994;21.992;2023-07-20T11:42:09;3.80;;;1.20;;
50709;SDS011;37033;49.994;21.992;2023-07-20T11:44:40;2.30;;;1.50;;
50709;SDS011;37033;49.994;21.992;2023-07-20T11:47:11;1.50;;;1.30;;
50709;SDS011;37033;49.994;21.992;2023-07-20T11:49:42;4.00;;;1.20;;
50709;SDS011;37033;49.994;21.992;2023-07-20T11:52:17;2.80;;;1.50;;
50709;SDS011;37033;49.994;21.992;2023-07-20T11:54:47;1.60;;;1.40;;
50709;SDS011;37033;49.994;21.992;2023-07-20T11:57:18;2.60;;;1.40;;
50709;SDS011;37033;49.994;21.992;2023-07-20T12:00:00;1.10;;;0.90;;
50709;SDS011;37033;49.994;21.992;2023-07-20T12:02:36;2.70;;;1.20;;
50709;SDS011;37033;49.994;21.992;2023-07-20T12:05:08;6.30;;;1.30;;
50709;SDS011;37033;49.994;21.992;2023-07-20T12:07:40;3.30;;;1.40;;
50709;SDS011;37033;49.994;21.992;2023-07-20T12:10:11;1.80;;;1.20;;
50709;SDS011;37033;49.994;21.992;2023-07-20T12:12:43;1.40;;;1.00;;
50709;SDS011;37033;49.994;21.992;2023-07-20T12:15:17;1.80;;;1.10;;
50709;SDS011;37033;49.994;21.992;2023-07-20T12:17:50;2.00;;;1.20;;
50709;SDS011;37033;49.994;21.992;2023-07-20T12:20:28;2.00;;;1.10;;
50709;SDS011;37033;49.994;21.992;2023-07-20T12:23:01;2.10;;;1.00;;
50709;SDS011;37033;49.994;21.992;2023-07-20T12:25:36;3.50;;;1.30;;
50709;SDS011;37033;49.994;21.992;2023-07-20T12:28:08;1.30;;;1.10;;
50709;SDS011;37033;49.994;21.992;2023-07-20T12:30:40;1.30;;;0.90;;
50709;SDS011;37033;49.994;21.992;2023-07-20T12:33:12;1.90;;;1.60;;
50709;SDS011;37033;49.994;21.992;2023-07-20T12:35:43;1.70;;;1.10;;
50709;SDS011;37033;49.994;21.992;2023-07-20T12:38:14;2.40;;;0.80;;
50709;SDS011;37033;49.994;21.992;2023-07-20T12:40:45;2.60;;;0.90;;
50709;SDS011;37033;49.994;21.992;2023-07-20T12:43:16;2.60;;;1.00;;
50709;SDS011;37033;49.994;21.992;2023-07-20T12:45:47;1.10;;;1.00;;
50709;SDS011;37033;49.994;21.992;2023-07-20T12:48:17;1.00;;;0.80;;
50709;SDS011;37033;49.994;21.992;2023-07-20T12:50:48;1.20;;;1.00;;
50709;SDS011;37033;49.994;21.992;2023-07-20T12:53:19;1.10;;;0.90;;
50709;SDS011;37033;49.994;21.992;2023-07-20T12:55:50;0.80;;;0.80;;
50709;SDS011;37033;49.994;21.992;2023-07-20T12:58:20;1.50;;;1.20;;
50709;SDS011;37033;49.994;21.992;2023-07-20T13:00:51;1.00;;;0.80;;
50709;SDS011;37033;49.994;21.992;2023-07-20T13:03:22;1.00;;;0.90;;
50709;SDS011;37033;49.994;21.992;2023-07-20T13:05:53;1.40;;;0.80;;
50709;SDS011;37033;49.994;21.992;2023-07-20T13:08:23;2.70;;;1.10;;
50709;SDS011;37033;49.994;21.992;2023-07-20T13:10:54;1.10;;;1.00;;
50709;SDS011;37033;49.994;21.992;2023-07-20T13:13:25;1.40;;;0.80;;
50709;SDS011;37033;49.994;21.992;2023-07-20T13:15:56;1.20;;;1.00;;
50709;SDS011;37033;49.994;21.992;2023-07-20T13:18:26;1.00;;;0.90;;
50709;SDS011;37033;49.994;21.992;2023-07-20T13:20:57;1.90;;;0.90;;
50709;SDS011;37033;49.994;21.992;2023-07-20T13:23:27;2.10;;;1.10;;
50709;SDS011;37033;49.994;21.992;2023-07-20T13:25:58;2.00;;;0.90;;
50709;SDS011;37033;49.994;21.992;2023-07-20T13:28:29;1.20;;;1.10;;
50709;SDS011;37033;49.994;21.992;2023-07-20T13:30:59;2.20;;;1.00;;
50709;SDS011;37033;49.994;21.992;2023-07-20T13:33:30;2.20;;;1.10;;
50709;SDS011;37033;49.994;21.992;2023-07-20T13:36:01;1.20;;;1.10;;
50709;SDS011;37033;49.994;21.992;2023-07-20T13:38:33;1.50;;;1.20;;
50709;SDS011;37033;49.994;21.992;2023-07-20T13:41:04;1.90;;;1.10;;
50709;SDS011;37033;49.994;21.992;2023-07-20T13:43:34;2.20;;;1.20;;
50709;SDS011;37033;49.994;21.992;2023-07-20T13:46:05;2.40;;;1.80;;
50709;SDS011;37033;49.994;21.992;2023-07-20T13:48:35;2.90;;;1.30;;
50709;SDS011;37033;49.994;21.992;2023-07-20T13:51:06;1.70;;;1.20;;
50709;SDS011;37033;49.994;21.992;2023-07-20T13:53:37;1.70;;;1.00;;
50709;SDS011;37033;49.994;21.992;2023-07-20T13:56:08;2.30;;;1.10;;
50709;SDS011;37033;49.994;21.992;2023-07-20T13:58:38;1.50;;;1.30;;
50709;SDS011;37033;49.994;21.992;2023-07-20T14:01:10;2.30;;;1.10;;
50709;SDS011;37033;49.994;21.992;2023-07-20T14:03:40;2.00;;;1.60;;
50709;SDS011;37033;49.994;21.992;2023-07-20T14:06:11;1.40;;;1.30;;
50709;SDS011;37033;49.994;21.992;2023-07-20T14:08:41;6.80;;;1.30;;
50709;SDS011;37033;49.994;21.992;2023-07-20T14:11:14;2.80;;;1.40;;
50709;SDS011;37033;49.994;21.992;2023-07-20T14:13:45;1.70;;;1.20;;
50709;SDS011;37033;49.994;21.992;2023-07-20T14:16:16;1.40;;;1.20;;
50709;SDS011;37033;49.994;21.992;2023-07-20T14:18:46;1.50;;;1.00;;
50709;SDS011;37033;49.994;21.992;2023-07-20T14:21:18;1.50;;;1.20;;
50709;SDS011;37033;49.994;21.992;2023-07-20T14:23:51;3.40;;;1.30;;
50709;SDS011;37033;49.994;21.992;2023-07-20T14:26:22;1.50;;;1.00;;
50709;SDS011;37033;49.994;21.992;2023-07-20T14:28:52;1.60;;;1.10;;
50709;SDS011;37033;49.994;21.992;2023-07-20T14:31:23;1.30;;;0.90;;
50709;SDS011;37033;49.994;21.992;2023-07-20T14:33:53;2.30;;;1.10;;
50709;SDS011;37033;49.994;21.992;2023-07-20T14:36:24;1.80;;;1.10;;
50709;SDS011;37033;49.994;21.992;2023-07-20T14:38:55;1.30;;;1.10;;
50709;SDS011;37033;49.994;21.992;2023-07-20T14:41:26;3.30;;;1.10;;
50709;SDS011;37033;49.994;21.992;2023-07-20T14:43:57;3.60;;;1.40;;
50709;SDS011;37033;49.994;21.992;2023-07-20T14:46:27;1.70;;;1.10;;
50709;SDS011;37033;49.994;21.992;2023-07-20T14:48:59;1.30;;;1.20;;
50709;SDS011;37033;49.994;21.992;2023-07-20T14:51:30;1.90;;;1.20;;
50709;SDS011;37033;49.994;21.992;2023-07-20T14:54:03;1.30;;;1.00;;
50709;SDS011;37033;49.994;21.992;2023-07-20T14:56:35;1.10;;;0.90;;
50709;SDS011;37033;49.994;21.992;2023-07-20T14:59:06;2.70;;;1.00;;
50709;SDS011;37033;49.994;21.992;2023-07-20T15:01:37;1.50;;;0.80;;
50709;SDS011;37033;49.994;21.992;2023-07-20T15:04:08;3.90;;;1.00;;